Time;durP1;ratioP1;P1;durP2;ratioP2;P2;SDS_P1;SDS_P2;PMS_P1;PMS_P2;Temp;Humidity;BMP_temperature;BMP_pressure;BME280_temperature;BME280_humidity;BME280_pressure;Samples;Min_cycle;Max_cycle;Signal;HPM_P1;HPM_P2
2021/09/14 00:00:05;;;;;;;15.10;13.53;;;16.80;1.00;;;;;;5109154;28;20186;-55
2021/09/14 00:02:31;;;;;;;15.73;14.23;;;16.80;1.00;;;;;;5103213;28;20183;-55
2021/09/14 00:04:56;;;;;;;15.10;13.73;;;16.80;1.00;;;;;;5108712;28;20436;-55
2021/09/14 00:07:22;;;;;;;15.77;14.43;;;16.70;1.00;;;;;;5111176;28;20254;-55
2021/09/14 00:09:47;;;;;;;15.50;14.20;;;16.70;1.00;;;;;;5102393;28;20265;-56
2021/09/14 00:12:13;;;;;;;15.77;14.30;;;16.70;1.00;;;;;;5092672;28;20182;-55
2021/09/14 00:14:38;;;;;;;18.13;13.27;;;16.70;1.00;;;;;;5110217;28;20259;-55
2021/09/14 00:17:04;;;;;;;16.17;14.47;;;16.70;1.00;;;;;;5111167;28;20174;-55
2021/09/14 00:19:29;;;;;;;17.13;14.30;;;16.70;1.00;;;;;;5107681;28;20654;-55
2021/09/14 00:21:55;;;;;;;14.90;13.60;;;16.60;1.00;;;;;;5095052;28;20208;-55
2021/09/14 00:24:20;;;;;;;14.40;13.20;;;16.60;1.00;;;;;;5110489;28;20212;-56
2021/09/14 00:26:46;;;;;;;15.23;13.83;;;16.60;1.00;;;;;;5106201;28;20194;-54
2021/09/14 00:29:11;;;;;;;14.53;13.10;;;16.60;1.00;;;;;;5110005;28;20183;-55
2021/09/14 00:31:37;;;;;;;14.00;12.80;;;16.50;1.00;;;;;;5106132;28;20193;-54
2021/09/14 00:34:02;;;;;;;13.50;12.20;;;16.50;1.00;;;;;;5110546;28;20616;-55
2021/09/14 00:36:28;;;;;;;14.60;13.40;;;16.60;1.00;;;;;;5106949;28;20197;-56
2021/09/14 00:38:53;;;;;;;15.60;14.10;;;16.60;1.00;;;;;;5110155;28;20274;-54
2021/09/14 00:41:19;;;;;;;15.10;13.60;;;16.60;1.00;;;;;;5111054;28;20191;-56
2021/09/14 00:44:14;;;;;;;15.40;14.10;;;16.70;1.00;;;;;;5110390;28;20234;-55
2021/09/14 00:46:40;;;;;;;15.23;13.97;;;16.70;1.00;;;;;;5091214;28;20194;-56
2021/09/14 00:49:05;;;;;;;14.40;13.20;;;16.80;1.00;;;;;;5108702;28;20453;-55
2021/09/14 00:51:32;;;;;;;14.80;13.63;;;16.80;1.00;;;;;;5108678;28;20190;-55
2021/09/14 00:53:58;;;;;;;14.33;13.00;;;16.80;1.00;;;;;;5107319;28;20208;-55
2021/09/14 00:56:24;;;;;;;13.70;12.30;;;16.80;1.00;;;;;;5107193;28;20455;-54
2021/09/14 00:58:49;;;;;;;15.30;14.00;;;16.80;1.00;;;;;;5111000;28;20179;-54
2021/09/14 01:01:15;;;;;;;13.90;12.10;;;16.80;1.00;;;;;;5102095;28;20452;-53
2021/09/14 01:03:41;;;;;;;14.60;13.23;;;16.80;1.00;;;;;;5110622;28;20240;-55
2021/09/14 01:06:06;;;;;;;14.73;13.47;;;16.90;1.00;;;;;;5105011;28;20213;-56
2021/09/14 01:08:33;;;;;;;13.80;12.60;;;16.90;1.00;;;;;;5109648;28;20246;-55
2021/09/14 01:11:01;;;;;;;14.10;12.90;;;16.90;1.00;;;;;;5099636;28;20220;-55
2021/09/14 01:13:26;;;;;;;15.13;13.50;;;16.90;1.00;;;;;;5108748;28;20971;-55
2021/09/14 01:15:52;;;;;;;15.10;13.70;;;16.90;1.00;;;;;;5106573;28;20447;-54
2021/09/14 01:18:17;;;;;;;13.83;12.73;;;16.90;1.00;;;;;;5109049;28;20190;-55
2021/09/14 01:20:43;;;;;;;15.30;13.90;;;16.80;1.00;;;;;;5102497;28;20205;-56
2021/09/14 01:23:08;;;;;;;16.53;14.90;;;16.70;1.00;;;;;;5105216;28;20638;-55
2021/09/14 01:25:34;;;;;;;15.60;14.10;;;16.70;1.00;;;;;;5106264;28;20198;-54
2021/09/14 01:28:06;;;;;;;15.07;13.87;;;16.60;1.00;;;;;;5110519;28;20174;-56
2021/09/14 01:30:33;;;;;;;15.23;13.93;;;16.60;1.00;;;;;;5108104;28;20178;-55
2021/09/14 01:32:58;;;;;;;15.90;14.60;;;16.50;1.00;;;;;;5106317;28;20478;-55
2021/09/14 01:35:27;;;;;;;14.37;13.07;;;16.50;1.00;;;;;;5098964;28;20504;-53
2021/09/14 01:37:52;;;;;;;13.67;12.57;;;16.40;1.00;;;;;;5109673;28;20216;-54
2021/09/14 01:40:18;;;;;;;15.13;13.73;;;16.40;1.00;;;;;;5109348;28;20439;-54
2021/09/14 01:42:45;;;;;;;14.50;13.30;;;16.30;1.00;;;;;;5113823;28;20181;-54
2021/09/14 01:45:12;;;;;;;17.43;13.30;;;16.30;1.00;;;;;;5111060;27;20190;-55
2021/09/14 01:47:38;;;;;;;14.47;13.17;;;16.20;1.00;;;;;;5094245;28;20477;-54
2021/09/14 01:50:05;;;;;;;15.40;14.10;;;16.20;1.00;;;;;;5106545;28;21016;-55
2021/09/14 01:52:32;;;;;;;14.23;12.80;;;16.20;1.00;;;;;;5111864;28;20453;-55
2021/09/14 01:55:00;;;;;;;14.40;13.20;;;16.10;1.00;;;;;;5113014;28;20446;-54
2021/09/14 01:57:31;;;;;;;15.47;13.50;;;16.10;1.00;;;;;;5112921;28;20522;-56
2021/09/14 01:59:58;;;;;;;14.60;13.30;;;16.10;1.00;;;;;;5110830;28;20439;-55
2021/09/14 02:02:56;;;;;;;17.97;13.73;;;16.10;1.00;;;;;;5111088;28;20451;-54
2021/09/14 02:05:42;;;;;;;15.33;14.03;;;16.00;1.00;;;;;;5103301;28;20466;-55
2021/09/14 02:30:09;;;;;;;15.73;13.80;;;16.00;1.00;;;;;;5109808;28;20472;-55
2021/09/14 02:38:30;;;;;;;15.53;14.03;;;16.00;1.00;;;;;;5112414;28;20987;-54
2021/09/14 03:00:05;;;;;;;15.10;13.47;;;15.80;1.00;;;;;;5110615;28;20482;-55
2021/09/14 03:02:30;;;;;;;14.80;13.27;;;15.90;1.00;;;;;;5111632;28;20489;-54
2021/09/14 03:04:56;;;;;;;14.20;13.00;;;15.90;1.00;;;;;;5109631;28;20949;-55
2021/09/14 03:07:22;;;;;;;15.33;13.93;;;16.00;1.00;;;;;;5108703;28;20648;-55
2021/09/14 03:09:47;;;;;;;13.40;12.30;;;16.00;1.00;;;;;;5112165;28;20175;-54
2021/09/14 03:12:13;;;;;;;14.00;12.90;;;16.00;1.00;;;;;;5107302;28;20198;-54
2021/09/14 03:14:38;;;;;;;14.00;12.90;;;16.10;1.00;;;;;;5106516;28;20579;-54
2021/09/14 03:17:04;;;;;;;14.10;12.80;;;16.10;1.00;;;;;;5107346;28;20644;-54
2021/09/14 03:19:29;;;;;;;13.30;12.20;;;16.10;1.00;;;;;;5107599;28;20183;-55
2021/09/14 03:21:55;;;;;;;14.83;13.50;;;16.10;1.00;;;;;;5087683;28;20239;-55
2021/09/14 03:24:20;;;;;;;14.40;12.97;;;16.10;1.00;;;;;;5110753;28;20275;-54
2021/09/14 03:26:46;;;;;;;14.80;13.53;;;16.10;1.00;;;;;;5112257;28;20200;-55
2021/09/14 03:29:11;;;;;;;13.03;12.00;;;16.00;1.00;;;;;;5111163;28;20183;-56
2021/09/14 03:31:38;;;;;;;14.03;12.77;;;16.00;1.00;;;;;;5090062;28;20194;-54
2021/09/14 03:34:04;;;;;;;15.03;13.63;;;16.00;1.00;;;;;;5107992;28;20311;-54
2021/09/14 03:36:29;;;;;;;14.33;12.90;;;16.00;1.00;;;;;;5089002;28;20490;-55
2021/09/14 03:38:55;;;;;;;16.10;14.70;;;15.80;1.00;;;;;;5105844;28;20185;-55
2021/09/14 03:41:20;;;;;;;16.40;14.70;;;15.80;1.00;;;;;;5110932;28;20684;-55
2021/09/14 03:43:46;;;;;;;15.20;13.90;;;15.80;1.00;;;;;;5110394;28;20261;-55
2021/09/14 03:46:11;;;;;;;15.50;14.20;;;15.80;1.00;;;;;;5101382;28;20194;-55
2021/09/14 03:48:37;;;;;;;15.53;14.10;;;15.80;1.00;;;;;;5107222;28;20222;-55
2021/09/14 03:51:02;;;;;;;14.67;13.37;;;15.70;1.00;;;;;;5103232;28;20225;-55
2021/09/14 03:53:28;;;;;;;17.70;15.90;;;15.60;1.00;;;;;;5108385;28;20208;-55
2021/09/14 03:55:53;;;;;;;15.03;13.83;;;15.60;1.00;;;;;;5101963;28;20530;-54
2021/09/14 03:58:20;;;;;;;15.67;14.27;;;15.60;1.00;;;;;;5103876;28;20224;-56
2021/09/14 04:00:51;;;;;;;14.47;12.97;;;15.70;1.00;;;;;;5106074;28;20547;-54
2021/09/14 04:03:20;;;;;;;14.87;13.37;;;15.70;1.00;;;;;;5109552;28;20439;-56
2021/09/14 04:10:42;;;;;;;15.03;13.43;;;15.90;1.00;;;;;;5107609;28;21656;-57
2021/09/14 04:13:09;;;;;;;13.63;12.57;;;16.00;1.00;;;;;;5107425;28;20206;-57
2021/09/14 04:15:35;;;;;;;14.53;13.13;;;15.80;1.00;;;;;;5107936;28;20782;-56
2021/09/14 04:18:00;;;;;;;15.93;14.33;;;15.80;1.00;;;;;;5111094;28;20446;-57
2021/09/14 04:20:26;;;;;;;14.93;13.47;;;15.80;1.00;;;;;;5105921;28;20443;-56
2021/09/14 04:22:51;;;;;;;15.13;13.70;;;15.80;1.00;;;;;;5109702;28;20243;-55
2021/09/14 04:25:17;;;;;;;15.67;14.27;;;15.80;1.00;;;;;;5110170;28;20175;-56
2021/09/14 04:27:43;;;;;;;15.37;13.57;;;15.80;1.00;;;;;;5091707;28;20178;-56
2021/09/14 04:30:09;;;;;;;14.40;13.10;;;15.90;1.00;;;;;;5107663;28;20726;-56
2021/09/14 04:32:35;;;;;;;14.10;12.70;;;15.90;1.00;;;;;;5106078;28;20264;-56
2021/09/14 04:35:01;;;;;;;15.27;13.87;;;15.90;1.00;;;;;;5109102;28;20929;-56
2021/09/14 04:37:27;;;;;;;16.10;14.70;;;15.90;1.00;;;;;;5109312;28;20454;-57
2021/09/14 04:39:52;;;;;;;14.17;12.97;;;15.90;1.00;;;;;;5110804;28;20213;-57
2021/09/14 04:42:18;;;;;;;14.00;12.80;;;16.00;1.00;;;;;;5102636;28;20221;-56
2021/09/14 04:44:44;;;;;;;15.97;14.57;;;15.90;1.00;;;;;;5106735;28;20183;-57
2021/09/14 04:47:09;;;;;;;17.90;15.67;;;15.90;1.00;;;;;;5109109;28;20544;-56
2021/09/14 04:49:35;;;;;;;21.20;17.70;;;15.90;1.00;;;;;;5115698;28;20223;-56
2021/09/14 04:52:07;;;;;;;17.77;16.07;;;15.90;1.00;;;;;;5110200;28;20188;-57
2021/09/14 04:54:34;;;;;;;20.43;18.30;;;15.80;1.00;;;;;;5111203;28;20476;-56
2021/09/14 04:56:59;;;;;;;18.37;16.67;;;15.90;1.00;;;;;;5111544;28;20439;-56
2021/09/14 04:59:25;;;;;;;19.20;17.40;;;15.90;1.00;;;;;;5111532;28;20451;-58
2021/09/14 05:01:53;;;;;;;18.93;17.07;;;15.90;1.00;;;;;;5109689;28;20627;-56
2021/09/14 05:04:19;;;;;;;18.00;16.37;;;16.00;1.00;;;;;;5110470;28;20190;-57
2021/09/14 05:06:45;;;;;;;16.97;15.27;;;16.00;1.00;;;;;;5111488;28;20467;-56
2021/09/14 05:09:11;;;;;;;18.63;16.97;;;16.00;1.00;;;;;;5110452;28;20777;-56
2021/09/14 05:11:36;;;;;;;22.10;20.00;;;16.10;1.00;;;;;;5111410;28;20224;-56
2021/09/14 05:14:02;;;;;;;20.70;18.60;;;16.10;1.00;;;;;;5111051;28;20221;-57
2021/09/14 05:16:27;;;;;;;20.90;19.00;;;16.20;1.00;;;;;;5114195;28;20193;-57
2021/09/14 05:18:53;;;;;;;20.87;18.73;;;16.20;1.00;;;;;;5115018;28;20176;-57
2021/09/14 05:21:19;;;;;;;19.20;17.50;;;16.20;1.00;;;;;;5114704;28;20189;-56
2021/09/14 05:23:45;;;;;;;20.50;18.60;;;16.20;1.00;;;;;;5110762;28;20192;-57
2021/09/14 05:26:11;;;;;;;19.70;17.90;;;16.20;1.00;;;;;;5108150;28;20184;-58
2021/09/14 05:28:37;;;;;;;18.87;17.23;;;16.20;1.00;;;;;;5109831;28;20903;-56
2021/09/14 05:31:05;;;;;;;19.50;17.40;;;16.20;1.00;;;;;;5110187;28;20435;-56
2021/09/14 05:33:30;;;;;;;19.80;17.97;;;16.30;1.00;;;;;;5114516;28;20436;-57
2021/09/14 05:35:56;;;;;;;18.17;16.47;;;16.30;1.00;;;;;;5106762;27;20821;-56
2021/09/14 05:38:24;;;;;;;19.20;17.40;;;16.30;1.00;;;;;;5114260;28;20186;-55
2021/09/14 05:40:54;;;;;;;19.00;17.00;;;16.40;1.00;;;;;;5109851;28;20674;-56
2021/09/14 05:43:25;;;;;;;16.77;15.37;;;16.50;1.00;;;;;;5114835;28;20443;-56
2021/09/14 05:45:50;;;;;;;16.13;14.67;;;16.60;1.00;;;;;;5110633;28;20455;-56
2021/09/14 05:48:16;;;;;;;17.50;13.73;;;16.70;1.00;;;;;;5117379;27;20511;-56
2021/09/14 05:50:42;;;;;;;15.57;14.20;;;16.80;1.00;;;;;;5111946;28;20188;-57
2021/09/14 05:53:08;;;;;;;14.83;13.53;;;16.90;1.00;;;;;;5110168;28;20217;-56
2021/09/14 05:55:40;;;;;;;14.90;13.30;;;16.90;1.00;;;;;;5112462;28;20931;-56
2021/09/14 05:58:07;;;;;;;14.70;13.47;;;17.00;1.00;;;;;;5110425;28;20908;-57
2021/09/14 06:00:34;;;;;;;13.20;11.90;;;17.00;1.00;;;;;;5108877;28;20450;-56
2021/09/14 06:03:00;;;;;;;13.53;12.23;;;17.00;1.00;;;;;;5106527;28;20501;-56
2021/09/14 06:05:26;;;;;;;12.40;11.40;;;17.00;1.00;;;;;;5112960;28;20797;-57
2021/09/14 06:07:52;;;;;;;12.20;11.20;;;16.90;1.00;;;;;;5107560;28;20461;-57
2021/09/14 06:10:17;;;;;;;14.03;12.53;;;17.00;1.00;;;;;;5114479;28;20199;-56
2021/09/14 06:12:43;;;;;;;12.97;11.77;;;17.00;1.00;;;;;;5108829;28;20192;-57
2021/09/14 06:15:09;;;;;;;12.80;11.60;;;17.10;1.00;;;;;;5099973;28;20187;-57
2021/09/14 06:17:36;;;;;;;11.90;10.90;;;17.20;1.00;;;;;;5100858;28;20191;-56
2021/09/14 06:20:02;;;;;;;11.90;10.90;;;17.20;1.00;;;;;;5110176;28;20459;-57
2021/09/14 06:22:27;;;;;;;11.57;10.47;;;17.30;1.00;;;;;;5098407;28;20436;-58
2021/09/14 06:24:53;;;;;;;11.27;10.33;;;17.40;1.00;;;;;;5112638;28;20934;-58
2021/09/14 06:27:19;;;;;;;10.93;10.07;;;17.40;1.00;;;;;;5112425;28;20188;-56
2021/09/14 06:29:44;;;;;;;12.70;11.47;;;17.30;1.00;;;;;;5112956;28;20187;-56
2021/09/14 06:32:10;;;;;;;11.50;10.40;;;17.40;1.00;;;;;;5108994;27;20252;-56
2021/09/14 06:34:36;;;;;;;10.53;9.67;;;17.40;1.00;;;;;;5113277;28;20626;-56
2021/09/14 06:37:03;;;;;;;11.53;10.43;;;17.40;1.00;;;;;;5106382;28;20273;-55
2021/09/14 06:39:28;;;;;;;12.77;11.57;;;17.40;1.00;;;;;;5110275;27;20902;-55
2021/09/14 06:41:54;;;;;;;10.63;9.73;;;17.60;1.00;;;;;;5112053;28;20582;-56
2021/09/14 06:44:20;;;;;;;10.47;9.67;;;17.60;1.00;;;;;;5113465;28;20182;-56
2021/09/14 06:46:45;;;;;;;10.43;9.60;;;17.60;1.00;;;;;;5113229;28;20488;-57
2021/09/14 06:49:11;;;;;;;11.07;10.00;;;17.70;1.00;;;;;;5115070;27;20326;-56
2021/09/14 06:51:36;;;;;;;9.53;8.57;;;17.70;1.00;;;;;;5105264;27;20186;-57
2021/09/14 06:54:03;;;;;;;11.20;10.10;;;17.50;1.00;;;;;;5112553;28;20667;-56
2021/09/14 06:56:28;;;;;;;10.13;9.20;;;17.90;1.00;;;;;;5103598;28;20186;-57
2021/09/14 06:58:54;;;;;;;10.80;9.80;;;17.90;1.00;;;;;;5112213;28;20446;-56
2021/09/14 07:01:21;;;;;;;9.90;9.10;;;18.10;1.00;;;;;;5113236;28;20627;-57
2021/09/14 07:03:48;;;;;;;10.43;9.47;;;18.20;1.00;;;;;;5113107;28;20192;-57
2021/09/14 07:06:14;;;;;;;9.93;9.10;;;18.30;1.00;;;;;;5105284;27;20416;-56
2021/09/14 07:08:39;;;;;;;10.40;9.50;;;18.40;1.00;;;;;;5111879;28;20444;-55
2021/09/14 07:11:05;;;;;;;9.80;8.80;;;18.50;1.00;;;;;;5111447;28;20425;-57
2021/09/14 07:13:30;;;;;;;9.67;8.87;;;18.60;1.00;;;;;;5099587;28;20676;-56
2021/09/14 07:15:56;;;;;;;10.60;9.50;;;18.70;1.00;;;;;;5111669;28;20202;-56
2021/09/14 07:18:21;;;;;;;9.17;8.47;;;18.90;1.00;;;;;;5106677;28;20172;-56
2021/09/14 07:20:47;;;;;;;9.43;8.63;;;19.10;1.00;;;;;;5113523;28;20213;-56
2021/09/14 07:23:13;;;;;;;9.60;8.70;;;19.20;1.00;;;;;;5103055;28;20719;-56
2021/09/14 07:25:41;;;;;;;9.60;8.80;;;19.30;1.00;;;;;;5111262;28;20212;-57
2021/09/14 07:28:07;;;;;;;9.40;8.70;;;19.40;1.00;;;;;;5109869;28;20277;-56
2021/09/14 07:30:32;;;;;;;10.87;9.63;;;19.50;1.00;;;;;;5112433;28;20444;-57
2021/09/14 07:32:58;;;;;;;10.50;9.60;;;19.60;1.00;;;;;;5101218;28;20438;-57
2021/09/14 07:35:25;;;;;;;9.40;8.70;;;19.80;1.00;;;;;;5107900;28;20195;-57
2021/09/14 07:37:51;;;;;;;10.77;9.67;;;19.80;1.00;;;;;;5110813;28;20179;-57
2021/09/14 07:40:16;;;;;;;11.70;8.70;;;19.90;1.00;;;;;;5105130;28;20507;-56
2021/09/14 07:42:42;;;;;;;9.67;8.87;;;19.90;1.00;;;;;;5107525;28;20190;-57
2021/09/14 07:45:08;;;;;;;9.77;8.97;;;20.20;1.00;;;;;;5111621;28;20444;-57
2021/09/14 07:47:33;;;;;;;10.83;9.73;;;20.70;1.00;;;;;;5108646;28;20190;-56
2021/09/14 07:49:59;;;;;;;9.97;8.70;;;21.00;1.00;;;;;;5113997;27;20420;-56
2021/09/14 07:52:25;;;;;;;8.27;7.57;;;21.90;1.00;;;;;;5110638;28;20186;-57
2021/09/14 07:54:50;;;;;;;9.43;8.73;;;21.00;1.00;;;;;;5112100;28;20198;-56
2021/09/14 07:57:16;;;;;;;9.23;8.33;;;20.90;1.00;;;;;;5110616;28;20659;-57
2021/09/14 07:59:41;;;;;;;9.47;8.60;;;20.90;1.00;;;;;;5105487;28;20193;-57
2021/09/14 08:02:07;;;;;;;9.17;8.37;;;20.90;1.00;;;;;;5100593;28;20190;-57
2021/09/14 08:04:33;;;;;;;8.83;8.20;;;21.00;1.00;;;;;;5111641;28;20671;-56
2021/09/14 08:06:58;;;;;;;8.80;7.93;;;21.10;1.00;;;;;;5110978;28;20966;-56
2021/09/14 08:09:28;;;;;;;9.10;8.30;;;21.40;1.00;;;;;;5109977;28;20214;-57
2021/09/14 08:11:53;;;;;;;10.33;9.23;;;21.50;1.00;;;;;;5111678;28;20264;-57
2021/09/14 08:14:19;;;;;;;9.53;8.63;;;21.70;1.00;;;;;;5111237;28;20505;-58
2021/09/14 08:16:44;;;;;;;9.70;8.80;;;21.90;1.00;;;;;;5110920;28;20217;-57
2021/09/14 08:19:10;;;;;;;9.47;8.67;;;21.90;1.00;;;;;;5111289;28;20182;-56
2021/09/14 08:21:36;;;;;;;10.03;8.37;;;21.80;1.00;;;;;;5111453;28;20178;-58
2021/09/14 08:24:01;;;;;;;8.93;8.30;;;21.90;1.00;;;;;;5110305;28;20202;-58
2021/09/14 08:26:27;;;;;;;9.50;8.60;;;22.10;1.00;;;;;;5108641;28;20187;-58
2021/09/14 08:28:52;;;;;;;11.47;8.83;;;22.40;1.00;;;;;;5110646;28;20183;-57
2021/09/14 08:31:18;;;;;;;8.93;8.13;;;22.60;1.00;;;;;;5109388;28;20236;-57
2021/09/14 08:33:44;;;;;;;9.77;8.90;;;22.60;1.00;;;;;;5111166;28;20529;-57
2021/09/14 08:36:09;;;;;;;10.90;9.80;;;22.70;1.00;;;;;;5109853;28;20188;-57
2021/09/14 08:38:35;;;;;;;9.10;8.40;;;22.90;1.00;;;;;;5109884;28;20209;-58
2021/09/14 08:41:01;;;;;;;9.37;8.67;;;23.00;1.00;;;;;;5105483;28;20171;-57
2021/09/14 08:43:27;;;;;;;10.23;9.33;;;23.20;1.00;;;;;;5111312;28;20537;-57
2021/09/14 08:45:53;;;;;;;10.03;9.00;;;23.30;1.00;;;;;;5111016;28;20915;-56
2021/09/14 08:48:19;;;;;;;9.50;8.70;;;23.40;1.00;;;;;;5110940;28;20545;-57
2021/09/14 08:50:46;;;;;;;9.93;8.97;;;23.50;1.00;;;;;;5106572;28;20684;-57
2021/09/14 08:53:11;;;;;;;9.47;8.53;;;23.60;1.00;;;;;;5099389;28;20939;-57
2021/09/14 08:55:37;;;;;;;9.83;8.93;;;23.60;1.00;;;;;;5114526;28;20490;-57
2021/09/14 08:58:08;;;;;;;9.77;8.87;;;23.50;1.00;;;;;;5092596;28;20186;-58
2021/09/14 09:00:36;;;;;;;9.87;8.90;;;23.60;1.00;;;;;;5114480;28;20171;-58
2021/09/14 09:03:02;;;;;;;9.30;8.60;;;23.70;1.00;;;;;;5114225;28;20418;-57
2021/09/14 09:05:36;;;;;;;9.10;8.30;;;23.90;1.00;;;;;;5111991;28;20462;-56
2021/09/14 09:08:03;;;;;;;9.13;8.27;;;23.90;1.00;;;;;;5117391;27;20426;-57
2021/09/14 09:10:29;;;;;;;9.90;9.00;;;23.90;1.00;;;;;;5108840;27;20411;-57
2021/09/14 09:12:57;;;;;;;8.63;7.83;;;24.10;1.00;;;;;;5095814;28;20489;-57
2021/09/14 09:15:28;;;;;;;9.73;8.83;;;24.20;1.00;;;;;;5111840;28;20448;-58
2021/09/14 09:18:12;;;;;;;9.40;8.60;;;24.30;1.00;;;;;;5112078;28;20777;-57
2021/09/14 09:20:41;;;;;;;8.87;8.17;;;24.30;1.00;;;;;;5110319;28;20444;-57
2021/09/14 09:23:09;;;;;;;9.47;8.60;;;24.50;1.00;;;;;;5106887;27;20531;-57
2021/09/14 09:25:35;;;;;;;11.53;9.60;;;24.50;1.00;;;;;;5114962;28;20489;-58
2021/09/14 09:28:08;;;;;;;9.93;8.63;;;24.50;1.00;;;;;;5107822;28;20449;-59
2021/09/14 09:30:38;;;;;;;10.40;8.77;;;24.50;1.00;;;;;;5115120;28;20447;-57
2021/09/14 09:33:07;;;;;;;9.00;8.30;;;24.50;1.00;;;;;;5114722;28;20483;-57
2021/09/14 09:35:36;;;;;;;8.93;8.23;;;24.50;1.00;;;;;;5115036;28;20839;-57
2021/09/14 09:38:02;;;;;;;8.73;7.93;;;24.70;1.00;;;;;;5114468;28;21319;-57
2021/09/14 09:40:47;;;;;;;9.50;8.60;;;24.80;1.00;;;;;;5114837;28;20766;-57
2021/09/14 09:43:13;;;;;;;8.90;8.20;;;25.00;1.00;;;;;;5113988;28;20454;-57
2021/09/14 09:45:43;;;;;;;9.03;8.23;;;25.20;1.00;;;;;;5115160;28;20451;-57
2021/09/14 09:48:10;;;;;;;9.40;8.43;;;25.30;1.00;;;;;;5113072;27;20228;-58
2021/09/14 09:50:41;;;;;;;9.20;8.50;;;25.40;1.00;;;;;;5091575;28;20448;-57
2021/09/14 09:53:08;;;;;;;9.53;8.53;;;25.60;1.00;;;;;;5104265;28;20447;-58
2021/09/14 09:55:34;;;;;;;9.20;8.50;;;25.70;1.00;;;;;;5116197;27;20425;-57
2021/09/14 09:58:03;;;;;;;9.47;8.63;;;25.60;1.00;;;;;;5112463;28;20875;-57
2021/09/14 10:00:30;;;;;;;9.37;8.57;;;25.70;1.00;;;;;;5099137;28;20886;-58
2021/09/14 10:03:14;;;;;;;8.20;7.50;;;25.80;1.00;;;;;;5109219;28;20403;-57
2021/09/14 10:05:41;;;;;;;8.97;8.27;;;25.90;1.00;;;;;;5107521;28;20566;-57
2021/09/14 10:08:10;;;;;;;9.60;8.70;;;25.80;1.00;;;;;;5113784;27;20453;-58
2021/09/14 10:10:37;;;;;;;9.47;8.67;;;25.60;1.00;;;;;;5115147;27;20412;-57
2021/09/14 10:13:06;;;;;;;8.47;7.80;;;25.70;1.00;;;;;;5104711;28;20545;-57
2021/09/14 10:15:57;;;;;;;10.77;9.80;;;25.60;1.00;;;;;;5106958;28;20460;-57
2021/09/14 10:18:31;;;;;;;9.57;8.73;;;25.80;1.00;;;;;;5110363;28;20420;-57
2021/09/14 10:20:58;;;;;;;9.17;8.37;;;26.00;1.00;;;;;;5113466;28;20966;-58
2021/09/14 10:23:35;;;;;;;8.20;7.40;;;26.30;1.00;;;;;;5112418;28;20754;-58
2021/09/14 10:26:12;;;;;;;9.50;8.20;;;26.50;1.00;;;;;;5114038;28;20854;-58
2021/09/14 10:28:45;;;;;;;12.67;11.37;;;26.30;1.00;;;;;;5103645;28;20481;-57
2021/09/14 10:31:31;;;;;;;8.33;7.63;;;26.40;1.00;;;;;;5113778;28;20442;-57
2021/09/14 10:34:05;;;;;;;8.60;7.90;;;26.50;1.00;;;;;;5113435;28;20431;-58
2021/09/14 10:36:33;;;;;;;8.00;7.30;;;26.60;1.00;;;;;;5113795;28;20435;-57
2021/09/14 10:38:59;;;;;;;7.80;7.00;;;26.60;1.00;;;;;;5113625;28;20736;-57
2021/09/14 10:41:38;;;;;;;8.50;7.80;;;26.60;1.00;;;;;;5113199;28;20444;-57
2021/09/14 10:44:08;;;;;;;8.30;7.43;;;26.60;1.00;;;;;;5114135;28;20426;-58
2021/09/14 10:46:35;;;;;;;7.47;6.87;;;26.40;1.00;;;;;;5113514;28;20443;-57
2021/09/14 10:49:00;;;;;;;8.10;6.93;;;26.20;1.00;;;;;;5113423;28;20468;-58
2021/09/14 10:51:26;;;;;;;7.63;6.93;;;26.20;1.00;;;;;;5113303;28;20451;-57
2021/09/14 10:53:59;;;;;;;8.80;8.00;;;26.50;1.00;;;;;;5113542;28;20211;-58
2021/09/14 10:56:26;;;;;;;7.03;6.53;;;26.70;1.00;;;;;;5113487;28;20191;-57
2021/09/14 10:58:52;;;;;;;7.97;7.17;;;26.80;1.00;;;;;;5113600;28;20407;-58
2021/09/14 11:01:25;;;;;;;8.13;7.53;;;26.60;1.00;;;;;;5111786;28;20486;-56
2021/09/14 11:04:05;;;;;;;8.17;7.37;;;26.50;1.00;;;;;;5113227;28;20437;-57
2021/09/14 11:06:31;;;;;;;7.20;6.60;;;26.50;1.00;;;;;;5112906;28;20416;-58
2021/09/14 11:08:59;;;;;;;7.63;6.93;;;26.70;1.00;;;;;;5103444;28;20408;-57
2021/09/14 11:11:24;;;;;;;8.00;7.30;;;26.80;1.00;;;;;;5113274;28;20511;-57
2021/09/14 11:13:51;;;;;;;7.17;6.57;;;27.00;1.00;;;;;;5111835;28;20515;-57
2021/09/14 11:16:17;;;;;;;9.43;8.63;;;25.80;1.00;;;;;;5113077;28;20172;-57
2021/09/14 11:18:44;;;;;;;6.90;6.30;;;27.30;1.00;;;;;;5112895;28;20402;-57
2021/09/14 11:21:11;;;;;;;7.27;6.67;;;27.00;1.00;;;;;;5106127;28;20176;-56
2021/09/14 11:23:39;;;;;;;8.10;7.37;;;27.00;1.00;;;;;;5108951;28;20440;-57
2021/09/14 11:26:08;;;;;;;8.20;6.47;;;26.60;1.00;;;;;;5112782;28;20416;-57
2021/09/14 11:28:34;;;;;;;8.23;7.43;;;26.60;1.00;;;;;;5110492;28;20407;-58
2021/09/14 11:31:02;;;;;;;8.60;7.80;;;26.90;1.00;;;;;;5112442;27;20421;-57
2021/09/14 11:33:30;;;;;;;8.60;7.80;;;27.10;1.00;;;;;;5112799;28;20433;-58
2021/09/14 11:35:58;;;;;;;7.63;7.07;;;27.10;1.00;;;;;;5102749;28;20415;-57
2021/09/14 11:38:24;;;;;;;8.13;7.53;;;27.20;1.00;;;;;;5104219;28;20959;-57
2021/09/14 11:40:55;;;;;;;7.80;6.83;;;27.20;1.00;;;;;;5112629;28;20425;-57
2021/09/14 11:43:26;;;;;;;7.37;6.80;;;27.10;1.00;;;;;;5112842;28;20423;-56
2021/09/14 11:45:52;;;;;;;8.53;7.83;;;27.00;1.00;;;;;;5112765;28;21108;-57
2021/09/14 11:48:24;;;;;;;7.70;7.10;;;27.10;1.00;;;;;;5112667;28;20523;-57
2021/09/14 11:51:10;;;;;;;7.63;6.93;;;27.30;1.00;;;;;;5103020;28;20428;-59
2021/09/14 11:53:38;;;;;;;7.83;7.13;;;27.40;1.00;;;;;;5112388;28;20429;-58
2021/09/14 11:56:15;;;;;;;6.83;6.33;;;27.20;1.00;;;;;;5111816;28;20404;-57
2021/09/14 11:58:43;;;;;;;9.63;7.83;;;27.40;1.00;;;;;;5107358;28;20433;-57
2021/09/14 12:01:09;;;;;;;7.50;6.90;;;27.60;1.00;;;;;;5112024;28;20466;-57
2021/09/14 12:03:51;;;;;;;7.90;7.20;;;27.20;1.00;;;;;;5112463;28;20423;-56
2021/09/14 12:06:32;;;;;;;7.87;7.07;;;26.70;1.00;;;;;;5109472;28;20811;-57
2021/09/14 12:09:00;;;;;;;7.50;6.90;;;26.50;1.00;;;;;;5112103;28;20420;-58
2021/09/14 12:11:31;;;;;;;7.17;6.57;;;26.30;1.00;;;;;;5115826;27;20420;-58
2021/09/14 12:13:58;;;;;;;7.87;7.27;;;26.30;1.00;;;;;;5111758;28;20440;-57
2021/09/14 12:16:27;;;;;;;7.37;6.67;;;26.40;1.00;;;;;;5112225;28;20902;-58
2021/09/14 12:18:53;;;;;;;7.80;7.20;;;26.60;1.00;;;;;;5112070;28;20973;-58
2021/09/14 12:21:18;;;;;;;7.20;6.60;;;26.60;1.00;;;;;;5111705;28;20406;-57
2021/09/14 12:23:44;;;;;;;7.40;6.70;;;26.60;1.00;;;;;;5111848;28;20215;-57
2021/09/14 12:26:21;;;;;;;8.50;7.80;;;26.90;1.00;;;;;;5111516;28;20218;-57
2021/09/14 12:28:48;;;;;;;8.53;7.83;;;27.30;1.00;;;;;;5112019;28;20188;-58
2021/09/14 12:31:14;;;;;;;7.63;6.93;;;27.40;1.00;;;;;;5111600;28;20449;-57
2021/09/14 12:33:39;;;;;;;7.70;7.10;;;27.30;1.00;;;;;;5111783;28;20528;-58
2021/09/14 12:36:05;;;;;;;9.53;6.90;;;27.70;1.00;;;;;;5111400;28;20402;-58
2021/09/14 12:38:30;;;;;;;7.67;7.10;;;27.50;1.00;;;;;;5111938;28;20184;-58
2021/09/14 12:40:56;;;;;;;6.37;5.87;;;27.50;1.00;;;;;;5111710;28;20202;-57
2021/09/14 12:43:22;;;;;;;7.50;6.80;;;27.70;1.00;;;;;;5111605;28;20179;-58
2021/09/14 12:45:47;;;;;;;7.20;6.60;;;27.60;1.00;;;;;;5111834;28;20188;-58
2021/09/14 12:48:12;;;;;;;7.73;7.13;;;27.40;1.00;;;;;;5111003;28;20309;-57
2021/09/14 12:50:41;;;;;;;6.50;6.00;;;27.20;1.00;;;;;;5111498;28;20200;-57
2021/09/14 12:53:06;;;;;;;7.57;6.90;;;27.30;1.00;;;;;;5110962;28;20425;-57
2021/09/14 12:55:35;;;;;;;7.37;6.67;;;27.30;1.00;;;;;;5111426;28;20413;-58
2021/09/14 12:58:03;;;;;;;7.27;6.30;;;27.20;1.00;;;;;;5106828;28;20669;-58
2021/09/14 13:00:28;;;;;;;6.87;6.27;;;27.10;1.00;;;;;;5111559;28;20969;-58
2021/09/14 13:02:54;;;;;;;6.57;6.07;;;27.10;1.00;;;;;;5111524;28;20496;-57
2021/09/14 13:05:20;;;;;;;6.50;6.00;;;27.10;1.00;;;;;;5111339;28;20191;-60
2021/09/14 13:07:45;;;;;;;7.10;6.40;;;27.00;1.00;;;;;;5111544;28;20649;-57
2021/09/14 13:10:13;;;;;;;9.43;6.87;;;26.90;1.00;;;;;;5111479;28;20716;-56
2021/09/14 13:12:45;;;;;;;7.53;6.03;;;26.90;1.00;;;;;;5116802;28;20224;-57
2021/09/14 13:17:55;;;;;;;7.67;6.97;;;26.90;1.00;;;;;;5111368;28;20409;-57
2021/09/14 13:20:21;;;;;;;6.97;6.47;;;27.10;1.00;;;;;;5111052;28;20426;-58
2021/09/14 13:22:47;;;;;;;11.33;6.40;;;27.10;1.00;;;;;;5109941;28;20514;-57
2021/09/14 13:25:12;;;;;;;6.87;6.20;;;27.20;1.00;;;;;;5111204;28;20445;-58
2021/09/14 13:27:38;;;;;;;7.37;6.77;;;27.20;1.00;;;;;;5109835;28;20189;-57
2021/09/14 13:30:04;;;;;;;6.90;6.40;;;27.00;1.00;;;;;;5095077;28;20726;-57
2021/09/14 13:32:30;;;;;;;6.87;6.33;;;26.90;1.00;;;;;;5111319;28;20669;-57
2021/09/14 13:34:55;;;;;;;6.73;6.13;;;27.10;1.00;;;;;;5110997;28;20458;-58
2021/09/14 13:37:21;;;;;;;7.93;6.60;;;27.10;1.00;;;;;;5113533;28;20536;-57
2021/09/14 13:39:46;;;;;;;6.37;5.87;;;27.20;1.00;;;;;;5115155;28;20268;-57
2021/09/14 13:42:13;;;;;;;5.97;5.57;;;27.10;1.00;;;;;;5114891;28;20184;-57